Time;durP1;ratioP1;P1;durP2;ratioP2;P2;SDS_P1;SDS_P2;PMS_P1;PMS_P2;Temp;Humidity;BMP_temperature;BMP_pressure;BME280_temperature;BME280_humidity;BME280_pressure;Samples;Min_cycle;Max_cycle;Signal;HPM_P1;HPM_P2
2021/11/13 00:02:01;;;;;;;;;;;-2.10;99.90;;;;;;5093630;28;20367;-75
2021/11/13 00:04:26;;;;;;;;;;;-2.20;99.90;;;;;;5076372;28;19973;-73
2021/11/13 00:06:52;;;;;;;;;;;-2.10;99.90;;;;;;5093514;28;19931;-73
2021/11/13 00:09:17;;;;;;;;;;;-2.10;99.90;;;;;;5093547;28;20267;-73
2021/11/13 00:11:43;;;;;;;;;;;-2.00;99.90;;;;;;5082714;28;20058;-73
2021/11/13 00:14:15;;;;;;;;;;;-2.00;99.90;;;;;;5055154;28;19908;-73
2021/11/13 00:16:41;;;;;;;;;;;-2.10;99.90;;;;;;5073140;28;19908;-73
2021/11/13 00:19:06;;;;;;;;;;;-2.00;99.90;;;;;;5072992;28;19908;-72
2021/11/13 00:21:32;;;;;;;;;;;-2.00;99.90;;;;;;5072525;28;19912;-74
2021/11/13 00:23:57;;;;;;;;;;;-2.00;99.90;;;;;;5072742;28;20063;-74
2021/11/13 00:26:23;;;;;;;;;;;-2.00;99.90;;;;;;5073109;28;19962;-73
2021/11/13 00:28:48;;;;;;;;;;;-1.90;99.90;;;;;;5072711;28;19959;-73
2021/11/13 00:31:14;;;;;;;;;;;-1.90;99.90;;;;;;5072293;28;19939;-73
2021/11/13 00:33:39;;;;;;;;;;;-1.80;99.90;;;;;;5072670;28;20355;-73
2021/11/13 00:36:05;;;;;;;;;;;-1.90;99.90;;;;;;5054987;28;19908;-73
2021/11/13 00:38:31;;;;;;;;;;;-1.80;99.90;;;;;;5072514;28;20050;-73
2021/11/13 00:40:56;;;;;;;;;;;-1.90;99.90;;;;;;5071840;28;19916;-73
2021/11/13 00:43:22;;;;;;;;;;;-1.90;99.90;;;;;;5089817;28;19908;-73
2021/11/13 00:45:48;;;;;;;;;;;-1.90;99.90;;;;;;5092742;28;19912;-73
2021/11/13 00:48:14;;;;;;;;;;;-2.00;99.90;;;;;;5092640;28;19915;-73
2021/11/13 00:50:40;;;;;;;;;;;-2.00;99.90;;;;;;5069174;28;19920;-73
2021/11/13 00:53:06;;;;;;;;;;;-1.90;99.90;;;;;;5071926;28;19909;-73
2021/11/13 00:55:31;;;;;;;;;;;-1.80;99.90;;;;;;5072083;28;20165;-73
2021/11/13 00:57:57;;;;;;;;;;;-1.90;99.90;;;;;;5071612;28;19963;-73
2021/11/13 01:00:24;;;;;;;;;;;-2.00;99.90;;;;;;5069362;28;20428;-73
2021/11/13 01:02:49;;;;;;;;;;;-2.00;99.90;;;;;;5071667;28;19916;-73
2021/11/13 01:05:15;;;;;;;;;;;-1.90;99.90;;;;;;5069565;28;19915;-73
2021/11/13 01:07:41;;;;;;;;;;;-2.00;99.90;;;;;;5068995;28;19909;-73
2021/11/13 01:10:07;;;;;;;;;;;-2.00;99.90;;;;;;5068577;28;19920;-72
2021/11/13 01:12:33;;;;;;;;;;;-2.00;99.90;;;;;;5076627;28;19916;-73
2021/11/13 01:14:58;;;;;;;;;;;-2.00;99.90;;;;;;5071421;28;19909;-73
2021/11/13 01:17:24;;;;;;;;;;;-2.00;99.90;;;;;;5078886;28;19953;-73
2021/11/13 01:19:49;;;;;;;;;;;-2.00;99.90;;;;;;5071245;28;19954;-73
2021/11/13 01:22:15;;;;;;;;;;;-2.00;99.90;;;;;;5071676;28;19908;-73
2021/11/13 01:24:41;;;;;;;;;;;-2.00;99.90;;;;;;5071616;28;19913;-73
2021/11/13 01:27:07;;;;;;;;;;;-1.90;99.90;;;;;;5053928;28;19908;-73
2021/11/13 01:29:32;;;;;;;;;;;-2.00;99.90;;;;;;5053744;28;19951;-71
2021/11/13 01:31:58;;;;;;;;;;;-2.10;99.90;;;;;;5071377;28;19924;-73
2021/11/13 01:34:23;;;;;;;;;;;-1.90;99.90;;;;;;5071707;28;19908;-73
2021/11/13 01:36:49;;;;;;;;;;;-2.10;99.90;;;;;;5071612;28;20386;-73
2021/11/13 01:39:15;;;;;;;;;;;-2.10;99.90;;;;;;5071402;28;20294;-74
2021/11/13 01:41:40;;;;;;;;;;;-2.10;99.90;;;;;;5071041;28;19912;-74
2021/11/13 01:44:07;;;;;;;;;;;-2.00;99.90;;;;;;5071588;28;20011;-74
2021/11/13 01:46:33;;;;;;;;;;;-2.00;99.90;;;;;;5071764;28;19909;-71
2021/11/13 01:48:59;;;;;;;;;;;-1.90;99.90;;;;;;5085609;28;20002;-72
2021/11/13 01:51:26;;;;;;;;;;;-1.90;99.90;;;;;;5091068;28;19947;-72
2021/11/13 01:53:54;;;;;;;;;;;-2.00;99.90;;;;;;5091440;28;19916;-71
2021/11/13 01:56:21;;;;;;;;;;;-2.00;99.90;;;;;;5091657;28;19908;-72
2021/11/13 01:58:50;;;;;;;;;;;-2.00;99.90;;;;;;5091440;28;20000;-72
2021/11/13 02:01:16;;;;;;;;;;;-2.10;99.90;;;;;;5091148;28;19915;-72
2021/11/13 02:03:44;;;;;;;;;;;-2.10;99.90;;;;;;5091377;28;19991;-72
2021/11/13 02:06:09;;;;;;;;;;;-2.00;99.90;;;;;;5091332;28;20314;-74
2021/11/13 02:08:35;;;;;;;;;;;-1.90;99.90;;;;;;5091518;28;20008;-74
2021/11/13 02:11:00;;;;;;;;;;;-1.90;99.90;;;;;;5090769;28;19923;-74
2021/11/13 02:13:26;;;;;;;;;;;-2.00;99.90;;;;;;5073272;28;19908;-74
2021/11/13 02:15:51;;;;;;;;;;;-2.00;99.90;;;;;;5091355;28;20336;-74
2021/11/13 02:18:17;;;;;;;;;;;-2.00;99.90;;;;;;5082959;28;19931;-74
2021/11/13 02:20:43;;;;;;;;;;;-1.90;99.90;;;;;;5070316;28;19913;-72
2021/11/13 02:23:09;;;;;;;;;;;-1.40;99.90;;;;;;5071269;28;19959;-73
2021/11/13 02:25:34;;;;;;;;;;;-1.60;99.90;;;;;;5071134;28;19940;-73
2021/11/13 02:28:00;;;;;;;;;;;-1.70;99.90;;;;;;5071206;28;19909;-74
2021/11/13 02:30:26;;;;;;;;;;;-1.70;99.90;;;;;;5052517;28;20010;-75
2021/11/13 02:32:54;;;;;;;;;;;-1.60;99.90;;;;;;5071012;28;19912;-75
2021/11/13 02:35:20;;;;;;;;;;;-1.60;99.90;;;;;;5070793;28;19909;-74
2021/11/13 02:37:46;;;;;;;;;;;-1.50;99.90;;;;;;5070980;28;19908;-74
2021/11/13 02:40:13;;;;;;;;;;;-1.40;99.90;;;;;;5070397;28;20430;-74
2021/11/13 02:42:39;;;;;;;;;;;-1.50;99.90;;;;;;5070873;28;19912;-74
2021/11/13 02:45:06;;;;;;;;;;;-1.60;99.90;;;;;;5070863;28;19909;-74
2021/11/13 02:47:33;;;;;;;;;;;-1.70;99.90;;;;;;5055398;28;19909;-72
2021/11/13 02:49:58;;;;;;;;;;;-1.70;99.90;;;;;;5090318;28;20186;-72
2021/11/13 02:52:24;;;;;;;;;;;-1.70;99.90;;;;;;5091180;28;19908;-73
2021/11/13 02:54:52;;;;;;;;;;;-1.80;99.90;;;;;;5091214;28;20010;-71
2021/11/13 02:57:17;;;;;;;;;;;-1.80;99.90;;;;;;5090967;28;19948;-72
2021/11/13 02:59:43;;;;;;;;;;;-1.90;99.90;;;;;;5090442;28;20354;-72
2021/11/13 03:02:09;;;;;;;;;;;-2.00;99.90;;;;;;5090712;28;19939;-71
2021/11/13 03:04:35;;;;;;;;;;;-2.00;99.90;;;;;;5090734;28;20402;-72
2021/11/13 03:07:00;;;;;;;;;;;-2.10;99.90;;;;;;5090602;28;19908;-72
2021/11/13 03:09:26;;;;;;;;;;;-2.10;99.90;;;;;;5090775;28;19915;-73
2021/11/13 03:11:52;;;;;;;;;;;-2.10;99.90;;;;;;5090354;28;19908;-72
2021/11/13 03:14:17;;;;;;;;;;;-2.10;99.90;;;;;;5093795;28;19915;-72
2021/11/13 03:16:43;;;;;;;;;;;-2.10;99.90;;;;;;5094334;28;19984;-72
2021/11/13 03:19:08;;;;;;;;;;;-2.20;99.90;;;;;;5078250;28;19916;-72
2021/11/13 03:21:34;;;;;;;;;;;-2.20;99.90;;;;;;5073243;28;20291;-72
2021/11/13 03:24:01;;;;;;;;;;;-2.30;99.90;;;;;;5055952;28;20301;-72
2021/11/13 03:26:27;;;;;;;;;;;-2.30;99.90;;;;;;5074048;28;20309;-72
2021/11/13 03:28:54;;;;;;;;;;;-2.30;99.90;;;;;;5073931;28;19931;-72
2021/11/13 03:31:23;;;;;;;;;;;-2.30;99.90;;;;;;5073217;28;19908;-72
2021/11/13 03:33:48;;;;;;;;;;;-2.40;99.90;;;;;;5074033;28;19958;-74
2021/11/13 03:36:17;;;;;;;;;;;-2.30;99.90;;;;;;5073503;28;19940;-71
2021/11/13 03:38:42;;;;;;;;;;;-2.40;99.90;;;;;;5055804;28;19963;-71
2021/11/13 03:41:08;;;;;;;;;;;-2.40;99.90;;;;;;5073154;28;19963;-72
2021/11/13 03:43:35;;;;;;;;;;;-2.40;99.90;;;;;;5073718;28;19908;-71
2021/11/13 03:46:00;;;;;;;;;;;-2.20;99.90;;;;;;5073536;28;19999;-72
2021/11/13 03:48:26;;;;;;;;;;;-2.30;99.90;;;;;;5082934;28;19998;-72
2021/11/13 03:50:51;;;;;;;;;;;-2.20;99.90;;;;;;5093075;28;20058;-72
2021/11/13 03:53:17;;;;;;;;;;;-2.20;99.90;;;;;;5093833;28;19953;-72
2021/11/13 03:55:43;;;;;;;;;;;-2.00;99.90;;;;;;5093581;28;19919;-72
2021/11/13 03:58:09;;;;;;;;;;;-1.90;99.90;;;;;;5093518;28;19919;-72
2021/11/13 04:00:34;;;;;;;;;;;-1.70;99.90;;;;;;5092960;28;20003;-72
2021/11/13 04:03:00;;;;;;;;;;;-1.60;99.90;;;;;;5093259;28;20375;-72
2021/11/13 04:05:25;;;;;;;;;;;-1.60;99.90;;;;;;5093586;28;19908;-72
2021/11/13 04:07:51;;;;;;;;;;;-1.50;99.90;;;;;;5094495;28;20024;-72
2021/11/13 04:10:17;;;;;;;;;;;-1.50;99.90;;;;;;5112747;28;19943;-72
2021/11/13 04:12:43;;;;;;;;;;;-1.40;99.90;;;;;;5112706;28;19908;-72
2021/11/13 04:15:09;;;;;;;;;;;-1.30;99.90;;;;;;5094447;28;20016;-72
2021/11/13 04:17:35;;;;;;;;;;;-1.20;99.90;;;;;;5090641;28;20096;-72
2021/11/13 04:20:01;;;;;;;;;;;-1.20;99.90;;;;;;5072134;28;19912;-72
2021/11/13 04:22:27;;;;;;;;;;;-1.10;99.90;;;;;;5073213;28;19909;-72
2021/11/13 04:24:52;;;;;;;;;;;-1.10;99.90;;;;;;5072814;28;20325;-72
2021/11/13 04:27:18;;;;;;;;;;;-1.00;99.90;;;;;;5072755;28;19912;-72
2021/11/13 04:29:44;;;;;;;;;;;-1.00;99.90;;;;;;5072432;28;19915;-72
2021/11/13 04:32:10;;;;;;;;;;;-1.10;99.90;;;;;;5072907;28;20294;-72
2021/11/13 04:34:48;;;;;;;;;;;-1.00;99.90;;;;;;5072693;28;19909;-72
2021/11/13 04:37:16;;;;;;;;;;;-0.90;99.90;;;;;;5072533;28;19916;-72
2021/11/13 04:39:42;;;;;;;;;;;-0.90;99.90;;;;;;5072056;28;20369;-72
2021/11/13 04:42:08;;;;;;;;;;;-0.90;99.90;;;;;;5072272;28;19923;-73
2021/11/13 04:44:33;;;;;;;;;;;-0.90;99.90;;;;;;5072283;28;19916;-72
2021/11/13 04:46:59;;;;;;;;;;;-0.80;99.90;;;;;;5072192;28;19916;-72
2021/11/13 04:49:24;;;;;;;;;;;-0.80;99.90;;;;;;5089663;28;19908;-72
2021/11/13 04:51:50;;;;;;;;;;;-0.70;99.90;;;;;;5092237;28;19908;-73
2021/11/13 04:54:15;;;;;;;;;;;-0.70;99.90;;;;;;5092546;28;20355;-73
2021/11/13 04:56:41;;;;;;;;;;;-0.60;99.90;;;;;;5092621;28;20350;-73
2021/11/13 04:59:06;;;;;;;;;;;-0.60;99.90;;;;;;5092164;28;19908;-72
2021/11/13 05:01:32;;;;;;;;;;;-0.60;99.90;;;;;;5091907;28;20045;-73
2021/11/13 05:03:57;;;;;;;;;;;-0.50;99.90;;;;;;5092248;28;20290;-72
2021/11/13 05:06:23;;;;;;;;;;;-0.60;99.90;;;;;;5092272;28;19960;-73
2021/11/13 05:08:49;;;;;;;;;;;-0.50;99.90;;;;;;5092295;28;20370;-73
2021/11/13 05:11:14;;;;;;;;;;;-0.60;99.90;;;;;;5091563;28;19916;-73
2021/11/13 05:13:40;;;;;;;;;;;-0.60;99.90;;;;;;5092045;28;19916;-73
2021/11/13 05:16:05;;;;;;;;;;;-0.60;99.90;;;;;;5092051;28;19947;-72
2021/11/13 05:18:31;;;;;;;;;;;-0.70;99.90;;;;;;5081295;28;19909;-73
2021/11/13 05:20:56;;;;;;;;;;;-0.60;99.90;;;;;;5071097;28;19913;-73
2021/11/13 05:23:22;;;;;;;;;;;-0.70;99.90;;;;;;5071723;28;20390;-73
2021/11/13 05:25:48;;;;;;;;;;;-0.80;99.90;;;;;;5071663;28;19919;-72
2021/11/13 05:28:13;;;;;;;;;;;-0.80;99.90;;;;;;5071483;28;20375;-72
2021/11/13 05:30:39;;;;;;;;;;;-0.80;99.90;;;;;;5071018;28;19948;-73
2021/11/13 05:33:04;;;;;;;;;;;-0.70;99.90;;;;;;5071384;28;19963;-73
2021/11/13 05:35:30;;;;;;;;;;;-0.60;99.90;;;;;;5053022;28;20385;-73
2021/11/13 05:37:55;;;;;;;;;;;-0.60;99.90;;;;;;5071820;28;19915;-73
2021/11/13 05:40:21;;;;;;;;;;;-0.60;99.90;;;;;;5070818;28;19963;-73
2021/11/13 05:42:49;;;;;;;;;;;-0.60;99.90;;;;;;5071267;28;19915;-73
2021/11/13 05:45:14;;;;;;;;;;;-0.60;99.90;;;;;;5053392;28;19916;-73
2021/11/13 05:47:40;;;;;;;;;;;-0.60;99.90;;;;;;5078486;28;20395;-73
2021/11/13 05:50:09;;;;;;;;;;;-0.70;99.90;;;;;;5070486;28;20291;-73
2021/11/13 05:52:35;;;;;;;;;;;-0.70;99.90;;;;;;5071733;28;19982;-74
2021/11/13 05:55:00;;;;;;;;;;;-0.80;99.90;;;;;;5054052;28;20359;-73
2021/11/13 05:57:26;;;;;;;;;;;-0.90;99.90;;;;;;5071512;28;20404;-74
2021/11/13 05:59:51;;;;;;;;;;;-0.90;99.90;;;;;;5071184;28;19908;-73
2021/11/13 06:02:17;;;;;;;;;;;-0.80;99.90;;;;;;5071478;28;19909;-74
2021/11/13 06:04:42;;;;;;;;;;;-0.80;99.90;;;;;;5053509;28;19909;-74
2021/11/13 06:07:08;;;;;;;;;;;-0.70;99.90;;;;;;5071882;28;20412;-74
2021/11/13 06:09:33;;;;;;;;;;;-0.60;99.90;;;;;;5071889;28;20345;-74
2021/11/13 06:11:59;;;;;;;;;;;-0.50;99.90;;;;;;5071942;28;19908;-74
2021/11/13 06:14:24;;;;;;;;;;;-0.50;99.90;;;;;;5071865;28;19908;-74
2021/11/13 06:16:50;;;;;;;;;;;-0.40;99.90;;;;;;5071876;28;19915;-73
2021/11/13 06:19:15;;;;;;;;;;;-0.30;99.90;;;;;;5088250;28;19908;-73
2021/11/13 06:21:41;;;;;;;;;;;-0.30;99.90;;;;;;5091520;28;20322;-73
2021/11/13 06:24:08;;;;;;;;;;;-0.20;99.90;;;;;;5092203;28;20434;-73
2021/11/13 06:26:34;;;;;;;;;;;-0.30;99.90;;;;;;5092234;28;19908;-73
2021/11/13 06:28:59;;;;;;;;;;;-0.30;99.90;;;;;;5091793;28;19910;-73
2021/11/13 06:31:25;;;;;;;;;;;-0.30;99.90;;;;;;5091322;28;19915;-73
2021/11/13 06:33:50;;;;;;;;;;;-0.20;99.90;;;;;;5082059;28;19912;-73
2021/11/13 06:36:16;;;;;;;;;;;0.00;99.90;;;;;;5079684;28;19937;-73
2021/11/13 06:38:41;;;;;;;;;;;0.10;99.90;;;;;;5088300;28;19916;-73
2021/11/13 06:41:07;;;;;;;;;;;0.20;99.90;;;;;;5080069;28;19948;-74
2021/11/13 06:43:32;;;;;;;;;;;0.30;99.90;;;;;;5080357;28;20378;-73
2021/11/13 06:45:58;;;;;;;;;;;0.30;99.90;;;;;;5084794;28;19912;-73
2021/11/13 06:48:25;;;;;;;;;;;0.30;99.90;;;;;;5084963;28;20321;-73
2021/11/13 06:50:52;;;;;;;;;;;0.30;99.90;;;;;;5086617;28;19908;-73
2021/11/13 06:53:18;;;;;;;;;;;0.30;99.90;;;;;;5084515;28;19974;-73
2021/11/13 06:55:43;;;;;;;;;;;0.30;99.90;;;;;;5083307;28;19916;-73
2021/11/13 06:58:09;;;;;;;;;;;0.30;99.90;;;;;;5074845;28;20321;-73
2021/11/13 07:00:34;;;;;;;;;;;0.30;99.90;;;;;;5083435;28;19920;-74
2021/11/13 07:03:02;;;;;;;;;;;0.20;99.90;;;;;;5082846;28;19909;-74
2021/11/13 07:05:28;;;;;;;;;;;0.10;99.90;;;;;;5076946;28;20381;-73
2021/11/13 07:07:55;;;;;;;;;;;0.20;99.90;;;;;;5084230;28;19916;-73
2021/11/13 07:10:21;;;;;;;;;;;0.20;99.90;;;;;;5084981;28;20015;-74
2021/11/13 07:12:46;;;;;;;;;;;0.20;99.90;;;;;;5086341;28;19934;-75
2021/11/13 07:15:13;;;;;;;;;;;0.30;99.90;;;;;;5085009;28;19915;-73
2021/11/13 07:17:39;;;;;;;;;;;0.40;99.90;;;;;;5085043;28;19913;-74
2021/11/13 07:20:05;;;;;;;;;;;0.30;99.90;;;;;;5075300;28;20293;-75
2021/11/13 07:22:31;;;;;;;;;;;0.40;99.90;;;;;;5073896;28;20482;-75
2021/11/13 07:24:56;;;;;;;;;;;0.50;99.90;;;;;;5074818;28;19962;-74
2021/11/13 07:27:22;;;;;;;;;;;0.50;99.90;;;;;;5075418;28;19908;-75
2021/11/13 07:29:58;;;;;;;;;;;0.50;99.90;;;;;;5078538;28;20551;-74
2021/11/13 07:32:24;;;;;;;;;;;0.60;99.90;;;;;;5077951;28;19908;-74
2021/11/13 07:34:49;;;;;;;;;;;0.70;99.90;;;;;;5095071;28;20422;-76
2021/11/13 07:37:15;;;;;;;;;;;0.70;99.90;;;;;;5077771;28;19908;-73
2021/11/13 07:39:40;;;;;;;;;;;0.80;99.90;;;;;;5095767;28;19912;-75
2021/11/13 07:42:06;;;;;;;;;;;0.80;99.90;;;;;;5096222;28;19916;-74
2021/11/13 07:44:31;;;;;;;;;;;0.80;99.90;;;;;;5096031;28;19949;-73
2021/11/13 07:46:57;;;;;;;;;;;0.80;99.90;;;;;;5095781;28;19908;-75
2021/11/13 07:49:23;;;;;;;;;;;0.80;99.90;;;;;;5058695;28;20430;-74
2021/11/13 07:51:49;;;;;;;;;;;0.70;99.90;;;;;;5072908;28;20283;-75
2021/11/13 07:54:14;;;;;;;;;;;0.70;99.90;;;;;;5073495;28;19912;-74
2021/11/13 07:56:40;;;;;;;;;;;0.80;99.90;;;;;;5073445;28;20039;-74
2021/11/13 07:59:06;;;;;;;;;;;1.00;99.90;;;;;;5073032;28;19952;-74
2021/11/13 08:01:31;;;;;;;;;;;1.00;99.90;;;;;;5072784;28;20328;-74
2021/11/13 08:03:57;;;;;;;;;;;1.10;99.90;;;;;;5073340;28;19908;-74
2021/11/13 08:06:22;;;;;;;;;;;1.30;99.90;;;;;;5073258;28;20359;-74
2021/11/13 08:08:48;;;;;;;;;;;1.40;99.90;;;;;;5073077;28;19913;-74
2021/11/13 08:11:14;;;;;;;;;;;1.50;99.90;;;;;;5072937;28;19916;-74
2021/11/13 08:13:42;;;;;;;;;;;1.70;99.90;;;;;;5073376;28;19909;-74
2021/11/13 08:16:08;;;;;;;;;;;2.10;99.90;;;;;;5073099;28;20011;-74
2021/11/13 08:18:33;;;;;;;;;;;2.40;99.90;;;;;;5083525;28;19954;-74
2021/11/13 08:21:00;;;;;;;;;;;2.70;99.90;;;;;;5074335;28;19912;-74
2021/11/13 08:23:26;;;;;;;;;;;2.80;99.90;;;;;;5093136;28;19985;-74
2021/11/13 08:25:52;;;;;;;;;;;3.10;99.90;;;;;;5093376;28;20390;-74
2021/11/13 08:28:19;;;;;;;;;;;3.20;99.90;;;;;;5093102;28;19908;-74
2021/11/13 08:30:44;;;;;;;;;;;3.00;99.90;;;;;;5092593;28;19955;-75
2021/11/13 08:33:10;;;;;;;;;;;2.80;99.90;;;;;;5093155;28;19908;-74
2021/11/13 08:35:37;;;;;;;;;;;2.90;99.90;;;;;;5092689;28;19915;-74
2021/11/13 08:38:02;;;;;;;;;;;2.80;99.90;;;;;;5092917;28;19995;-74
2021/11/13 08:40:28;;;;;;;;;;;2.90;99.90;;;;;;5092290;28;20007;-74
2021/11/13 08:42:53;;;;;;;;;;;3.10;99.90;;;;;;5093111;28;20054;-74
2021/11/13 08:45:19;;;;;;;;;;;3.50;99.90;;;;;;5092755;28;19940;-74
2021/11/13 08:47:45;;;;;;;;;;;3.70;99.90;;;;;;5088999;28;19908;-74
2021/11/13 08:50:17;;;;;;;;;;;3.80;99.90;;;;;;5072637;28;20290;-74
2021/11/13 08:52:43;;;;;;;;;;;3.80;99.90;;;;;;5072973;28;19908;-75
2021/11/13 08:55:08;;;;;;;;;;;4.20;99.90;;;;;;5072815;28;20003;-75
2021/11/13 08:57:34;;;;;;;;;;;4.40;99.90;;;;;;5072720;28;20298;-75
2021/11/13 09:00:00;;;;;;;;;;;5.70;99.90;;;;;;5072274;28;20401;-75
2021/11/13 09:02:27;;;;;;;;;;;5.40;99.90;;;;;;5072648;28;19909;-75
2021/11/13 09:04:53;;;;;;;;;;;5.00;99.90;;;;;;5072425;28;19916;-75
2021/11/13 09:07:19;;;;;;;;;;;4.70;99.90;;;;;;5072633;28;19908;-74
2021/11/13 09:09:46;;;;;;;;;;;4.60;99.90;;;;;;5071850;28;19921;-75
2021/11/13 09:12:14;;;;;;;;;;;4.50;99.90;;;;;;5071703;28;19913;-75
2021/11/13 09:14:40;;;;;;;;;;;4.60;99.90;;;;;;5072447;28;19912;-75
2021/11/13 09:17:06;;;;;;;;;;;5.00;99.90;;;;;;5072155;28;19915;-75
2021/11/13 09:19:32;;;;;;;;;;;5.20;99.90;;;;;;5090488;28;19908;-75
2021/11/13 09:21:57;;;;;;;;;;;5.20;99.90;;;;;;5092160;28;20358;-75
2021/11/13 09:24:23;;;;;;;;;;;5.30;99.90;;;;;;5092259;28;19969;-75
2021/11/13 09:26:49;;;;;;;;;;;7.80;99.90;;;;;;5092312;28;20015;-74
2021/11/13 09:29:15;;;;;;;;;;;10.70;99.90;;;;;;5092141;28;19908;-74
2021/11/13 09:31:42;;;;;;;;;;;13.10;99.90;;;;;;5091836;28;20007;-74
2021/11/13 09:34:09;;;;;;;;;;;14.70;99.90;;;;;;5091994;28;19908;-74
2021/11/13 09:36:34;;;;;;;;;;;14.50;99.80;;;;;;5092227;28;20328;-74
2021/11/13 09:39:00;;;;;;;;;;;15.40;97.90;;;;;;5092362;28;19915;-74
2021/11/13 09:41:26;;;;;;;;;;;13.40;99.10;;;;;;5091490;28;19958;-74
2021/11/13 09:43:51;;;;;;;;;;;11.10;99.90;;;;;;5092072;28;20334;-74
2021/11/13 09:46:17;;;;;;;;;;;10.60;99.90;;;;;;5092209;28;19908;-74
2021/11/13 09:48:42;;;;;;;;;;;11.60;99.90;;;;;;5079829;28;19909;-74
2021/11/13 09:51:10;;;;;;;;;;;12.50;99.90;;;;;;5071290;28;20480;-74
2021/11/13 09:53:35;;;;;;;;;;;12.10;99.90;;;;;;5072028;28;20206;-74
2021/11/13 09:56:01;;;;;;;;;;;11.50;99.90;;;;;;5071556;28;20371;-74
2021/11/13 09:58:27;;;;;;;;;;;11.40;99.90;;;;;;5071299;28;20000;-74
2021/11/13 10:00:52;;;;;;;;;;;11.10;99.90;;;;;;5071443;28;19919;-74
2021/11/13 10:03:19;;;;;;;;;;;10.80;99.90;;;;;;5071336;28;19916;-74
2021/11/13 10:05:46;;;;;;;;;;;10.30;99.90;;;;;;5071544;28;19915;-74
2021/11/13 10:08:12;;;;;;;;;;;9.60;99.90;;;;;;5071812;28;19916;-74
2021/11/13 10:10:38;;;;;;;;;;;9.00;99.90;;;;;;5070830;28;19916;-74
2021/11/13 10:13:21;;;;;;;;;;;8.70;99.90;;;;;;5071310;28;19909;-74
2021/11/13 10:15:50;;;;;;;;;;;8.40;99.90;;;;;;5082908;28;19916;-74
2021/11/13 10:18:17;;;;;;;;;;;8.40;99.90;;;;;;5083366;28;19970;-74
2021/11/13 10:20:47;;;;;;;;;;;8.30;99.90;;;;;;5052753;28;19916;-74
2021/11/13 10:23:32;;;;;;;;;;;8.40;99.90;;;;;;5074549;28;19908;-73
2021/11/13 10:26:00;;;;;;;;;;;8.60;99.90;;;;;;5060532;28;20325;-73
2021/11/13 10:28:26;;;;;;;;;;;9.00;99.90;;;;;;5076287;28;19908;-73
2021/11/13 10:31:13;;;;;;;;;;;9.30;99.90;;;;;;5075067;28;19913;-74
2021/11/13 10:33:39;;;;;;;;;;;9.60;99.90;;;;;;5075174;28;19913;-74
2021/11/13 10:36:05;;;;;;;;;;;9.80;99.90;;;;;;5075169;28;19916;-74
2021/11/13 10:38:31;;;;;;;;;;;9.90;99.90;;;;;;5056759;28;19908;-74
2021/11/13 10:40:59;;;;;;;;;;;10.00;99.90;;;;;;5074465;28;19999;-74
2021/11/13 10:43:33;;;;;;;;;;;9.80;99.90;;;;;;5075049;28;19909;-75
2021/11/13 10:46:00;;;;;;;;;;;10.00;99.90;;;;;;5074995;28;20460;-75
2021/11/13 10:48:25;;;;;;;;;;;10.20;99.90;;;;;;5084089;28;19908;-74
2021/11/13 10:50:51;;;;;;;;;;;10.40;99.90;;;;;;5094695;28;19915;-74
2021/11/13 10:53:23;;;;;;;;;;;10.90;99.90;;;;;;5094766;28;19995;-75
2021/11/13 10:56:24;;;;;;;;;;;11.00;99.90;;;;;;5094948;28;19993;-75
2021/11/13 10:58:50;;;;;;;;;;;10.90;99.90;;;;;;5032193;28;19913;-75
2021/11/13 11:01:36;;;;;;;;;;;10.80;99.90;;;;;;5081454;28;19912;-76
2021/11/13 11:04:25;;;;;;;;;;;10.90;99.90;;;;;;5096241;28;19912;-76
2021/11/13 11:06:52;;;;;;;;;;;10.70;99.90;;;;;;5086356;28;19969;-75
2021/11/13 11:09:23;;;;;;;;;;;10.50;99.90;;;;;;5093936;28;19936;-75
2021/11/13 11:11:50;;;;;;;;;;;10.40;99.90;;;;;;5094120;28;19927;-75
2021/11/13 11:14:18;;;;;;;;;;;10.30;99.90;;;;;;5076306;28;20390;-75
2021/11/13 11:16:45;;;;;;;;;;;10.20;99.90;;;;;;5094338;28;20099;-75
2021/11/13 11:19:15;;;;;;;;;;;10.20;99.90;;;;;;5078523;28;19908;-75
2021/11/13 11:21:52;;;;;;;;;;;10.10;99.90;;;;;;5091386;28;19920;-75
2021/11/13 11:24:21;;;;;;;;;;;10.00;99.90;;;;;;5093390;28;20057;-76
2021/11/13 11:26:51;;;;;;;;;;;10.10;99.90;;;;;;5093804;28;20282;-75
2021/11/13 11:29:17;;;;;;;;;;;10.00;99.90;;;;;;5093549;28;20293;-75
2021/11/13 11:31:42;;;;;;;;;;;10.00;99.90;;;;;;5092877;28;19912;-75
2021/11/13 11:34:21;;;;;;;;;;;9.90;99.90;;;;;;5093576;28;19916;-75
2021/11/13 11:36:47;;;;;;;;;;;9.80;99.90;;;;;;5085709;28;19912;-76
2021/11/13 11:39:13;;;;;;;;;;;9.70;99.90;;;;;;5093827;28;20290;-76
2021/11/13 11:41:39;;;;;;;;;;;9.50;99.90;;;;;;5077269;28;19924;-76
2021/11/13 11:44:04;;;;;;;;;;;9.50;99.90;;;;;;5074289;28;19913;-75
2021/11/13 11:46:30;;;;;;;;;;;9.40;99.90;;;;;;5083529;28;19908;-75
2021/11/13 11:48:59;;;;;;;;;;;9.30;99.90;;;;;;5093580;28;19908;-75
2021/11/13 11:51:24;;;;;;;;;;;9.30;99.90;;;;;;5075195;28;19914;-75
2021/11/13 11:53:50;;;;;;;;;;;9.30;99.90;;;;;;5094186;28;19944;-76
2021/11/13 11:56:18;;;;;;;;;;;9.40;99.90;;;;;;5093737;28;20348;-76
2021/11/13 11:58:44;;;;;;;;;;;9.40;99.90;;;;;;5094139;28;19908;-75
2021/11/13 12:01:29;;;;;;;;;;;9.50;99.90;;;;;;5092944;28;19920;-76
2021/11/13 12:04:14;;;;;;;;;;;9.50;99.90;;;;;;5093752;28;19915;-75
2021/11/13 12:06:41;;;;;;;;;;;9.40;99.90;;;;;;5079228;28;19912;-75
2021/11/13 12:09:06;;;;;;;;;;;9.30;99.90;;;;;;5072959;28;19930;-75
2021/11/13 12:11:35;;;;;;;;;;;9.20;99.90;;;;;;5091185;28;19916;-74
2021/11/13 12:14:19;;;;;;;;;;;9.20;99.90;;;;;;5075229;28;19915;-75
2021/11/13 12:16:45;;;;;;;;;;;9.10;99.90;;;;;;5093264;28;19961;-75
2021/11/13 12:19:10;;;;;;;;;;;9.10;99.90;;;;;;5093593;28;19908;-74
2021/11/13 12:21:36;;;;;;;;;;;9.00;99.90;;;;;;5092364;28;19972;-74
2021/11/13 12:24:06;;;;;;;;;;;9.10;99.90;;;;;;5081364;28;19919;-75
2021/11/13 12:26:34;;;;;;;;;;;9.20;99.90;;;;;;5080858;28;19927;-74
2021/11/13 12:29:03;;;;;;;;;;;9.30;99.90;;;;;;5093121;28;19908;-75
2021/11/13 12:31:39;;;;;;;;;;;9.30;99.90;;;;;;5092682;28;19961;-74
2021/11/13 12:34:16;;;;;;;;;;;9.40;99.90;;;;;;5093052;28;19908;-74
2021/11/13 12:37:01;;;;;;;;;;;9.50;99.90;;;;;;5092888;28;20046;-75
2021/11/13 12:39:32;;;;;;;;;;;9.60;99.90;;;;;;5090827;28;19953;-74
2021/11/13 12:42:03;;;;;;;;;;;9.70;99.90;;;;;;5054001;28;19960;-75
2021/11/13 12:44:29;;;;;;;;;;;9.70;99.90;;;;;;5072787;28;20287;-75
2021/11/13 12:47:00;;;;;;;;;;;9.70;99.90;;;;;;5073387;28;19909;-74
2021/11/13 12:49:30;;;;;;;;;;;9.60;99.90;;;;;;5073513;28;20526;-74
2021/11/13 12:51:57;;;;;;;;;;;9.40;99.90;;;;;;5072004;28;19909;-76
2021/11/13 12:54:22;;;;;;;;;;;9.30;99.90;;;;;;5072289;28;20069;-75
2021/11/13 12:56:48;;;;;;;;;;;9.20;99.90;;;;;;5072644;28;20441;-74
2021/11/13 12:59:17;;;;;;;;;;;9.20;99.90;;;;;;5055665;28;19908;-74
2021/11/13 13:01:50;;;;;;;;;;;9.10;99.90;;;;;;5072783;28;20272;-74
2021/11/13 13:04:16;;;;;;;;;;;9.20;99.90;;;;;;5072468;28;19978;-74
2021/11/13 13:06:42;;;;;;;;;;;9.20;99.90;;;;;;5072227;28;20355;-75
2021/11/13 13:09:08;;;;;;;;;;;9.20;99.90;;;;;;5072559;28;20000;-75
2021/11/13 13:11:34;;;;;;;;;;;9.20;99.90;;;;;;5090730;28;19947;-75
2021/11/13 13:13:59;;;;;;;;;;;9.10;99.90;;;;;;5091807;28;19948;-75
2021/11/13 13:16:28;;;;;;;;;;;9.10;99.90;;;;;;5074213;28;19962;-74
2021/11/13 13:18:59;;;;;;;;;;;9.10;99.90;;;;;;5072299;28;19908;-75
2021/11/13 13:21:25;;;;;;;;;;;9.00;99.90;;;;;;5071110;28;19917;-75
2021/11/13 13:23:51;;;;;;;;;;;9.00;99.90;;;;;;5084699;28;19908;-75
2021/11/13 13:26:18;;;;;;;;;;;8.90;99.90;;;;;;5092081;28;19999;-75
2021/11/13 13:28:43;;;;;;;;;;;8.90;99.90;;;;;;5092095;28;19908;-75
2021/11/13 13:31:10;;;;;;;;;;;8.90;99.90;;;;;;5091305;28;19923;-76
2021/11/13 13:33:36;;;;;;;;;;;8.90;99.90;;;;;;5091578;28;19960;-77
2021/11/13 13:36:02;;;;;;;;;;;8.70;99.90;;;;;;5092157;28;19908;-76
2021/11/13 13:38:28;;;;;;;;;;;8.60;99.90;;;;;;5091847;28;19916;-75
2021/11/13 13:40:55;;;;;;;;;;;8.50;99.90;;;;;;5091181;28;19912;-77
2021/11/13 13:43:42;;;;;;;;;;;8.50;99.90;;;;;;5073899;28;19909;-75
2021/11/13 13:46:17;;;;;;;;;;;8.50;99.90;;;;;;5091749;28;19908;-75
2021/11/13 13:48:42;;;;;;;;;;;8.50;99.90;;;;;;5073819;28;20362;-75
2021/11/13 13:51:34;;;;;;;;;;;8.60;99.90;;;;;;5091471;28;19999;-77
2021/11/13 13:54:06;;;;;;;;;;;8.60;99.90;;;;;;5074104;28;20314;-74
2021/11/13 13:56:36;;;;;;;;;;;8.70;99.90;;;;;;5070960;28;19919;-74
2021/11/13 13:59:03;;;;;;;;;;;8.70;99.90;;;;;;5071692;28;19908;-75
2021/11/13 14:01:32;;;;;;;;;;;8.70;99.90;;;;;;5070909;28;19924;-75
2021/11/13 14:04:07;;;;;;;;;;;8.80;99.90;;;;;;5071124;28;20282;-75
2021/11/13 14:06:33;;;;;;;;;;;9.00;99.90;;;;;;5071449;28;19909;-75
2021/11/13 14:08:59;;;;;;;;;;;9.10;99.90;;;;;;5071271;28;19920;-75
2021/11/13 14:11:25;;;;;;;;;;;9.20;99.90;;;;;;5070795;28;20287;-74
2021/11/13 14:13:51;;;;;;;;;;;9.20;99.90;;;;;;5071548;28;19916;-74
2021/11/13 14:16:16;;;;;;;;;;;9.20;99.90;;;;;;5071179;28;19908;-74
2021/11/13 14:18:43;;;;;;;;;;;9.30;99.90;;;;;;5071486;28;19908;-74
2021/11/13 14:21:10;;;;;;;;;;;9.10;99.90;;;;;;5070891;28;20291;-74
2021/11/13 14:23:40;;;;;;;;;;;9.00;99.90;;;;;;5081954;28;19908;-74